createdAt,value
2023-05-11T00:05:52.657Z,100
2023-05-11T00:11:52.692Z,100
2023-05-11T00:17:52.707Z,100
2023-05-11T00:23:52.664Z,100
2023-05-11T00:29:52.660Z,100
2023-05-11T00:35:52.653Z,100
2023-05-11T00:41:52.664Z,100
2023-05-11T00:47:52.747Z,100
2023-05-11T00:53:52.867Z,100
2023-05-11T00:59:52.648Z,100
2023-05-11T01:15:52.651Z,100
2023-05-11T01:21:52.666Z,100
2023-05-11T01:27:52.706Z,100
2023-05-11T01:33:52.644Z,100
2023-05-11T01:39:52.654Z,100
2023-05-11T01:45:52.685Z,100
2023-05-11T01:51:52.667Z,100
2023-05-11T01:57:52.684Z,100
2023-05-11T02:03:52.678Z,100
2023-05-11T02:09:52.699Z,100
2023-05-11T02:15:52.695Z,100
2023-05-11T02:21:52.662Z,100
2023-05-11T02:27:52.636Z,100
2023-05-11T02:33:52.931Z,100
2023-05-11T02:39:52.650Z,100
2023-05-11T02:45:52.650Z,100
2023-05-11T02:51:52.690Z,100
2023-05-11T02:57:52.741Z,100
2023-05-11T03:03:52.843Z,100
2023-05-11T03:09:52.659Z,100
2023-05-11T03:15:52.658Z,100
2023-05-11T03:21:52.672Z,100
2023-05-11T03:27:52.671Z,100
2023-05-11T03:33:52.653Z,100
2023-05-11T03:39:52.719Z,100
2023-05-11T03:45:52.727Z,100
2023-05-11T03:51:52.682Z,100
2023-05-11T03:57:52.662Z,100
2023-05-11T04:03:53.073Z,100
2023-05-11T04:12:03.188Z,100
2023-05-11T04:17:52.706Z,100
2023-05-11T04:23:52.660Z,100
2023-05-11T04:29:52.667Z,100
2023-05-11T04:35:52.690Z,100
2023-05-11T04:41:52.641Z,100
2023-05-11T04:47:52.721Z,100
2023-05-11T04:53:52.761Z,100
2023-05-11T04:59:52.758Z,100
2023-05-11T05:11:52.746Z,100
2023-05-11T05:17:52.777Z,100
2023-05-11T05:23:52.662Z,100
2023-05-11T05:29:52.683Z,100
2023-05-11T05:35:52.671Z,100
2023-05-11T05:53:52.675Z,100
2023-05-11T05:59:52.684Z,100
2023-05-11T06:05:52.679Z,100
2023-05-11T06:17:52.775Z,100
2023-05-11T06:23:52.687Z,100
2023-05-11T06:29:52.676Z,100
2023-05-11T06:35:52.661Z,100
2023-05-11T06:41:54.423Z,100
2023-05-11T06:53:52.693Z,100
2023-05-11T06:59:52.664Z,100
2023-05-11T07:17:52.774Z,100
2023-05-11T07:23:52.714Z,100
2023-05-11T07:29:52.690Z,100
2023-05-11T07:35:52.708Z,100
2023-05-11T07:47:52.805Z,100
2023-05-11T07:53:52.686Z,100
2023-05-11T08:05:52.763Z,100
2023-05-11T08:11:52.706Z,100
2023-05-11T08:17:52.722Z,100
2023-05-11T08:23:52.704Z,100
2023-05-11T08:29:52.702Z,100
2023-05-11T08:35:52.704Z,100
2023-05-11T08:41:52.672Z,100
2023-05-11T08:47:52.858Z,100
2023-05-11T08:53:52.729Z,100
2023-05-11T08:59:52.696Z,100
2023-05-11T09:05:52.793Z,100
2023-05-11T09:11:52.677Z,100
2023-05-11T09:17:52.800Z,83.9
2023-05-11T09:23:52.710Z,88.8
2023-05-11T09:47:52.746Z,86.8
2023-05-11T09:53:52.732Z,78.4
2023-05-11T09:59:52.771Z,75
2023-05-11T10:17:52.773Z,73.7
2023-05-11T10:23:52.729Z,71.6
2023-05-11T10:29:52.729Z,69.8
2023-05-11T10:35:54.086Z,73.5
2023-05-11T10:41:52.999Z,70.2
2023-05-11T10:47:52.772Z,65.6
2023-05-11T10:59:52.742Z,71.5
2023-05-11T11:05:52.785Z,71.7
2023-05-11T11:11:52.811Z,72.5
2023-05-11T11:17:52.769Z,73.2
2023-05-11T11:23:52.727Z,72.2
2023-05-11T11:29:52.750Z,70.8
2023-05-11T11:35:52.748Z,70.5
2023-05-11T11:41:52.753Z,66.6
2023-05-11T11:47:52.816Z,70.6
2023-05-11T11:53:52.714Z,75.9
2023-05-11T11:59:52.737Z,76.1
2023-05-11T12:05:52.715Z,74.9
2023-05-11T12:11:52.810Z,76.3
2023-05-11T12:17:52.846Z,71.5
2023-05-11T12:23:52.732Z,77.3
2023-05-11T12:29:52.741Z,78.1
2023-05-11T12:35:52.739Z,74.2
2023-05-11T12:41:52.779Z,75.3
2023-05-11T12:47:52.807Z,73.4
2023-05-11T12:53:52.775Z,82
2023-05-11T12:59:52.730Z,77.5
2023-05-11T13:05:52.737Z,80.4
2023-05-11T13:17:52.788Z,91.4
2023-05-11T13:23:52.746Z,93.7
2023-05-11T13:41:55.664Z,92
2023-05-11T13:47:52.803Z,85.6
2023-05-11T13:53:52.756Z,84.9
2023-05-11T13:59:52.745Z,84.8
2023-05-11T14:05:52.772Z,82.1
2023-05-11T14:17:52.825Z,85.4
2023-05-11T14:24:09.804Z,86.6
2023-05-11T14:29:57.955Z,85.6
2023-05-11T14:35:52.781Z,86
2023-05-11T14:41:52.789Z,86.2
2023-05-11T14:47:52.961Z,91.3
2023-05-11T14:53:52.781Z,92.9
2023-05-11T14:59:59.735Z,95.2
2023-05-11T15:05:52.853Z,99.6
2023-05-11T15:11:52.814Z,100
2023-05-11T15:17:52.843Z,100
2023-05-11T15:23:52.754Z,100
2023-05-11T15:29:56.660Z,100
2023-05-11T15:35:52.793Z,100
2023-05-11T15:47:52.969Z,100
2023-05-11T15:53:52.887Z,100
2023-05-11T15:59:52.773Z,100
2023-05-11T16:05:52.790Z,100
2023-05-11T16:11:52.764Z,100
2023-05-11T16:17:52.896Z,100
2023-05-11T16:23:52.790Z,100
2023-05-11T16:29:52.785Z,100
2023-05-11T16:35:52.862Z,100
2023-05-11T16:41:52.803Z,100
2023-05-11T16:47:52.802Z,100
2023-05-11T16:53:52.788Z,100
2023-05-11T16:59:52.795Z,100
2023-05-11T17:05:52.764Z,100
2023-05-11T17:11:52.794Z,100
2023-05-11T17:17:52.839Z,100
2023-05-11T17:23:52.777Z,100
2023-05-11T17:29:52.812Z,100
2023-05-11T17:35:52.793Z,100
2023-05-11T17:47:52.780Z,100
2023-05-11T17:53:52.770Z,100
2023-05-11T17:59:52.794Z,100
2023-05-11T18:05:52.767Z,100
2023-05-11T18:11:52.783Z,100
2023-05-11T18:17:52.811Z,100
2023-05-11T18:23:52.812Z,100
2023-05-11T18:29:52.794Z,100
2023-05-11T18:35:52.782Z,100
2023-05-11T18:41:52.795Z,100
2023-05-11T18:47:52.778Z,100
2023-05-11T18:53:52.788Z,100
2023-05-11T18:59:52.802Z,100
2023-05-11T19:05:52.761Z,100
2023-05-11T19:11:52.764Z,100
2023-05-11T19:17:52.828Z,100
2023-05-11T19:23:52.893Z,100
2023-05-11T19:29:52.797Z,100
2023-05-11T19:35:52.791Z,100
2023-05-11T19:41:52.793Z,100
2023-05-11T19:47:52.803Z,100
2023-05-11T19:53:52.898Z,100
2023-05-11T19:59:52.781Z,100
2023-05-11T20:05:52.784Z,100
2023-05-11T20:11:52.820Z,100
2023-05-11T20:17:52.821Z,100
2023-05-11T20:23:52.796Z,100
2023-05-11T20:29:52.780Z,100
2023-05-11T20:35:53.676Z,100
2023-05-11T20:41:52.776Z,100
2023-05-11T20:47:52.856Z,100
2023-05-11T20:53:52.811Z,100
2023-05-11T21:05:52.839Z,100
2023-05-11T21:11:52.862Z,100
2023-05-11T21:17:52.872Z,100
2023-05-11T21:23:52.799Z,100
2023-05-11T21:29:52.803Z,100
2023-05-11T21:35:52.790Z,100
2023-05-11T21:41:52.801Z,100
2023-05-11T21:47:52.838Z,100
2023-05-11T21:53:52.801Z,100
2023-05-11T21:59:52.780Z,100
2023-05-11T22:05:52.799Z,100
2023-05-11T22:17:52.865Z,100
2023-05-11T22:23:52.823Z,100
2023-05-11T22:29:52.822Z,100
2023-05-11T22:35:52.795Z,100
2023-05-11T22:41:52.795Z,100
2023-05-11T22:47:52.819Z,100
2023-05-11T23:05:52.795Z,100
2023-05-11T23:11:52.819Z,100
2023-05-11T23:17:52.879Z,100
2023-05-11T23:23:52.804Z,100
2023-05-11T23:29:52.820Z,100
2023-05-11T23:35:52.799Z,100
2023-05-11T23:47:52.869Z,100
2023-05-11T23:53:52.807Z,100
2023-05-11T23:59:52.795Z,100
